createdAt,value
2017-09-10T00:00:21.299Z,68.10
2017-09-10T00:02:49.264Z,68.00
2017-09-10T00:05:17.859Z,68.80
2017-09-10T00:07:46.720Z,68.30
2017-09-10T00:10:14.212Z,68.30
2017-09-10T00:12:41.670Z,68.00
2017-09-10T00:15:09.281Z,67.80
2017-09-10T00:17:36.844Z,67.90
2017-09-10T00:20:04.326Z,68.00
2017-09-10T00:22:32.990Z,67.90
2017-09-10T00:25:01.785Z,67.70
2017-09-10T00:27:29.602Z,67.70
2017-09-10T00:29:57.919Z,67.80
2017-09-10T00:32:26.756Z,68.30
2017-09-10T00:34:55.318Z,68.50
2017-09-10T00:37:23.395Z,68.50
2017-09-10T00:39:52.303Z,68.50
2017-09-10T00:42:19.781Z,68.50
2017-09-10T00:44:48.415Z,69.00
2017-09-10T00:47:16.328Z,68.30
2017-09-10T00:49:45.289Z,68.00
2017-09-10T00:52:13.604Z,68.80
2017-09-10T00:54:41.033Z,68.10
2017-09-10T00:57:09.161Z,68.40
2017-09-10T00:59:36.610Z,68.60
2017-09-10T01:02:04.441Z,68.70
2017-09-10T01:04:33.190Z,68.50
2017-09-10T01:07:00.650Z,68.50
2017-09-10T01:09:29.304Z,68.70
2017-09-10T01:11:57.310Z,68.70
2017-09-10T01:14:24.797Z,68.90
2017-09-10T01:16:53.231Z,68.90
2017-09-10T01:19:20.773Z,68.30
2017-09-10T01:21:48.317Z,68.00
2017-09-10T01:24:16.356Z,67.50
2017-09-10T01:26:44.592Z,67.30
2017-09-10T01:29:12.835Z,68.00
2017-09-10T01:31:41.164Z,68.00
2017-09-10T01:34:08.645Z,68.30
2017-09-10T01:36:36.869Z,68.20
2017-09-10T01:39:05.164Z,68.00
2017-09-10T01:41:33.817Z,68.20
2017-09-10T01:44:02.096Z,68.70
2017-09-10T01:46:31.055Z,67.90
2017-09-10T01:48:58.501Z,67.90
2017-09-10T01:51:26.746Z,67.50
2017-09-10T01:53:54.547Z,67.50
2017-09-10T01:56:24.028Z,67.10
2017-09-10T01:58:52.766Z,67.10
2017-09-10T02:01:21.530Z,67.60
2017-09-10T02:03:48.996Z,67.10
2017-09-10T02:06:17.210Z,67.00
2017-09-10T02:08:44.878Z,67.00
2017-09-10T02:11:14.066Z,66.90
2017-09-10T02:13:42.827Z,66.90
2017-09-10T02:16:10.308Z,66.80
2017-09-10T02:18:38.172Z,66.80
2017-09-10T02:21:05.683Z,66.90
2017-09-10T02:23:33.520Z,67.00
2017-09-10T02:26:01.294Z,67.00
2017-09-10T02:28:28.741Z,67.10
2017-09-10T02:30:56.681Z,67.30
2017-09-10T02:33:24.312Z,67.80
2017-09-10T02:35:51.799Z,68.10
2017-09-10T02:38:19.882Z,68.70
2017-09-10T02:40:47.762Z,68.40
2017-09-10T02:43:16.017Z,68.10
2017-09-10T02:45:45.506Z,67.30
2017-09-10T02:48:13.829Z,67.00
2017-09-10T02:50:41.288Z,67.00
2017-09-10T02:53:09.016Z,67.10
2017-09-10T02:55:36.558Z,66.90
2017-09-10T02:58:04.334Z,67.00
2017-09-10T03:00:32.257Z,66.90
2017-09-10T03:03:00.759Z,67.10
2017-09-10T03:05:28.739Z,67.40
2017-09-10T03:07:57.308Z,67.60
2017-09-10T03:10:25.250Z,67.60
2017-09-10T03:12:53.483Z,67.90
2017-09-10T03:15:20.977Z,67.70
2017-09-10T03:17:48.664Z,68.00
2017-09-10T03:20:16.222Z,68.00
2017-09-10T03:22:44.946Z,67.10
2017-09-10T03:25:12.948Z,67.10
2017-09-10T03:27:40.439Z,67.50
2017-09-10T03:30:07.997Z,67.40
2017-09-10T03:32:35.858Z,67.40
2017-09-10T03:35:04.091Z,68.00
2017-09-10T03:37:31.522Z,67.50
2017-09-10T03:39:59.285Z,67.00
2017-09-10T03:42:26.884Z,66.90
2017-09-10T03:44:55.455Z,67.40
2017-09-10T03:47:27.145Z,67.20
2017-09-10T03:49:54.636Z,67.20
2017-09-10T03:52:23.121Z,67.10
2017-09-10T03:54:50.597Z,67.10
2017-09-10T03:57:19.208Z,67.10
2017-09-10T03:59:47.932Z,67.00
2017-09-10T04:02:15.729Z,67.00
2017-09-10T04:04:44.197Z,66.90
2017-09-10T04:07:12.417Z,66.80
2017-09-10T04:09:40.409Z,66.70
2017-09-10T04:12:09.157Z,66.70
2017-09-10T04:14:36.608Z,66.60
2017-09-10T04:17:04.118Z,68.00
2017-09-10T04:19:31.557Z,68.00
2017-09-10T04:21:59.115Z,68.10
2017-09-10T04:24:27.897Z,69.40
2017-09-10T04:26:55.511Z,69.20
2017-09-10T04:29:22.999Z,68.50
2017-09-10T04:31:51.572Z,67.30
2017-09-10T04:34:19.613Z,67.20
2017-09-10T04:36:48.289Z,67.30
2017-09-10T04:39:17.051Z,67.60
2017-09-10T04:41:44.501Z,67.60
2017-09-10T04:44:12.937Z,70.00
2017-09-10T04:46:40.922Z,69.10
2017-09-10T04:49:09.570Z,68.30
2017-09-10T04:51:38.357Z,68.20
2017-09-10T04:54:05.993Z,68.00
2017-09-10T04:56:33.445Z,67.70
2017-09-10T04:59:02.210Z,67.80
2017-09-10T05:01:30.790Z,67.90
2017-09-10T05:03:59.713Z,67.90
2017-09-10T05:06:27.309Z,67.90
2017-09-10T05:08:55.632Z,67.80
2017-09-10T05:11:23.222Z,67.50
2017-09-10T05:13:50.753Z,67.60
2017-09-10T05:16:19.070Z,69.10
2017-09-10T05:18:46.837Z,69.10
2017-09-10T05:21:14.341Z,68.70
2017-09-10T05:23:42.386Z,68.10
2017-09-10T05:26:10.769Z,68.40
2017-09-10T05:28:38.281Z,68.30
2017-09-10T05:31:07.322Z,68.00
2017-09-10T05:33:34.829Z,68.00
2017-09-10T05:36:02.344Z,67.90
2017-09-10T05:38:30.166Z,68.00
2017-09-10T05:40:57.675Z,68.40
2017-09-10T05:43:25.449Z,69.00
2017-09-10T05:45:53.499Z,69.10
2017-09-10T05:48:21.559Z,69.00
2017-09-10T05:50:49.780Z,69.10
2017-09-10T05:53:17.330Z,69.10
2017-09-10T05:55:45.142Z,69.20
2017-09-10T05:58:14.184Z,69.40
2017-09-10T06:00:42.415Z,69.60
2017-09-10T06:03:09.932Z,69.40
2017-09-10T06:05:38.334Z,69.90
2017-09-10T06:08:05.932Z,69.90
2017-09-10T06:10:34.274Z,69.90
2017-09-10T06:13:02.730Z,71.00
2017-09-10T06:15:31.075Z,70.20
2017-09-10T06:17:58.587Z,70.30
2017-09-10T06:20:26.641Z,70.40
2017-09-10T06:22:54.597Z,70.50
2017-09-10T06:25:23.026Z,70.80
2017-09-10T06:27:52.243Z,70.70
2017-09-10T06:30:20.206Z,70.60
2017-09-10T06:32:48.161Z,71.00
2017-09-10T06:35:15.678Z,71.10
2017-09-10T06:37:44.808Z,71.10
2017-09-10T06:40:12.773Z,71.20
2017-09-10T06:42:40.291Z,71.30
2017-09-10T06:45:07.891Z,71.50
2017-09-10T06:47:35.941Z,71.60
2017-09-10T06:50:03.732Z,71.80
2017-09-10T06:52:31.500Z,71.90
2017-09-10T06:54:59.009Z,72.00
2017-09-10T06:57:26.966Z,72.10
2017-09-10T06:59:56.893Z,72.30
2017-09-10T07:02:24.717Z,72.20
2017-09-10T07:04:52.269Z,72.20
2017-09-10T07:07:19.737Z,72.30
2017-09-10T07:09:47.857Z,72.60
2017-09-10T07:12:15.853Z,72.70
2017-09-10T07:14:43.454Z,72.80
2017-09-10T07:17:11.354Z,72.90
2017-09-10T07:19:39.695Z,72.90
2017-09-10T07:22:07.249Z,72.90
2017-09-10T07:24:36.373Z,73.80
2017-09-10T07:27:03.878Z,73.70
2017-09-10T07:29:32.555Z,73.30
2017-09-10T07:32:00.792Z,73.40
2017-09-10T07:34:29.738Z,73.40
2017-09-10T07:36:57.245Z,73.80
2017-09-10T07:39:25.207Z,73.70
2017-09-10T07:41:52.737Z,73.10
2017-09-10T07:44:21.046Z,73.50
2017-09-10T07:46:49.101Z,73.50
2017-09-10T07:49:16.963Z,73.70
2017-09-10T07:51:44.659Z,73.50
2017-09-10T07:54:12.437Z,73.70
2017-09-10T07:56:40.732Z,73.20
2017-09-10T07:59:08.961Z,73.20
2017-09-10T08:01:36.971Z,73.40
2017-09-10T08:04:06.405Z,73.10
2017-09-10T08:06:33.945Z,73.00
2017-09-10T08:09:01.993Z,72.90
2017-09-10T08:11:29.604Z,72.80
2017-09-10T08:13:57.301Z,72.80
2017-09-10T08:16:24.935Z,72.40
2017-09-10T08:18:53.002Z,72.70
2017-09-10T08:21:20.829Z,72.70
2017-09-10T08:23:49.169Z,72.80
2017-09-10T08:26:17.165Z,72.80
2017-09-10T08:28:44.682Z,73.10
2017-09-10T08:31:12.543Z,72.10
2017-09-10T08:33:40.057Z,72.30
2017-09-10T08:36:08.326Z,72.90
2017-09-10T08:38:36.822Z,72.40
2017-09-10T08:41:04.324Z,72.40
2017-09-10T08:43:32.115Z,71.40
2017-09-10T08:45:59.976Z,71.80
2017-09-10T08:48:27.488Z,71.40
2017-09-10T08:50:54.991Z,71.20
2017-09-10T08:53:23.637Z,70.30
2017-09-10T08:55:51.983Z,70.30
2017-09-10T08:58:20.213Z,70.80
2017-09-10T09:00:48.510Z,70.50
2017-09-10T09:03:16.044Z,69.40
2017-09-10T09:05:43.552Z,68.90
2017-09-10T09:08:11.685Z,68.20
2017-09-10T09:10:39.986Z,67.20
2017-09-10T09:13:07.767Z,67.20
2017-09-10T09:15:35.637Z,66.80
2017-09-10T09:18:03.151Z,67.90
2017-09-10T09:20:30.837Z,67.80
2017-09-10T09:22:59.072Z,68.00
2017-09-10T09:25:27.119Z,67.70
2017-09-10T09:27:54.635Z,66.50
2017-09-10T09:30:22.138Z,65.70
2017-09-10T09:32:52.175Z,64.80
2017-09-10T09:35:19.680Z,64.90
2017-09-10T09:37:49.874Z,65.60
2017-09-10T09:40:18.209Z,65.50
2017-09-10T09:42:47.058Z,65.50
2017-09-10T09:45:14.784Z,64.80
2017-09-10T09:47:43.350Z,65.00
2017-09-10T09:50:10.860Z,64.80
2017-09-10T09:52:38.822Z,61.80
2017-09-10T09:55:07.136Z,61.80
2017-09-10T09:57:35.150Z,61.80
2017-09-10T10:00:03.825Z,62.60
2017-09-10T10:02:31.823Z,63.40
2017-09-10T10:04:59.310Z,62.70
2017-09-10T10:07:27.633Z,59.70
2017-09-10T10:09:55.512Z,59.70
2017-09-10T10:12:24.079Z,59.20
2017-09-10T10:14:52.309Z,58.90
2017-09-10T10:17:19.747Z,58.90
2017-09-10T10:19:47.747Z,58.90
2017-09-10T10:22:15.197Z,59.50
2017-09-10T10:24:43.525Z,59.30
2017-09-10T10:27:10.958Z,58.90
2017-09-10T10:29:38.414Z,59.20
2017-09-10T10:32:07.409Z,57.50
2017-09-10T10:34:35.293Z,57.50
2017-09-10T10:37:02.718Z,56.90
2017-09-10T10:39:30.721Z,57.90
2017-09-10T10:41:58.540Z,57.70
2017-09-10T10:44:26.002Z,57.20
2017-09-10T10:46:53.969Z,56.90
2017-09-10T10:49:22.533Z,57.40
2017-09-10T10:51:49.973Z,57.30
2017-09-10T10:54:17.446Z,56.20
2017-09-10T10:56:45.685Z,56.40
2017-09-10T10:59:13.931Z,56.60
2017-09-10T11:01:41.885Z,56.60
2017-09-10T11:04:09.947Z,55.40
2017-09-10T11:06:38.214Z,56.70
2017-09-10T11:09:06.874Z,56.90
2017-09-10T11:11:34.321Z,56.80
2017-09-10T11:14:02.669Z,56.30
2017-09-10T11:16:30.133Z,56.30
2017-09-10T11:18:59.196Z,57.80
2017-09-10T11:21:26.698Z,57.10
2017-09-10T11:23:54.751Z,56.00
2017-09-10T11:26:22.954Z,55.90
2017-09-10T11:28:52.345Z,55.80
2017-09-10T11:31:20.894Z,54.60
2017-09-10T11:33:48.821Z,55.10
2017-09-10T11:36:16.286Z,55.00
2017-09-10T11:38:44.080Z,54.30
2017-09-10T11:41:11.591Z,54.00
2017-09-10T11:43:39.100Z,53.90
2017-09-10T11:46:07.026Z,53.50
2017-09-10T11:48:34.750Z,53.80
2017-09-10T11:51:02.274Z,52.20
2017-09-10T11:53:29.744Z,51.00
2017-09-10T11:55:57.318Z,51.20
2017-09-10T11:58:25.252Z,51.30
2017-09-10T12:00:53.400Z,52.30
2017-09-10T12:03:21.801Z,52.40
2017-09-10T12:05:49.339Z,53.10
2017-09-10T12:08:16.853Z,51.40
2017-09-10T12:10:44.719Z,52.30
2017-09-10T12:13:12.276Z,52.60
2017-09-10T12:15:39.740Z,52.10
2017-09-10T12:18:07.341Z,51.20
2017-09-10T12:20:35.499Z,51.80
2017-09-10T12:23:03.464Z,51.20
2017-09-10T12:25:31.786Z,50.90
2017-09-10T12:28:00.018Z,51.40
2017-09-10T12:30:27.965Z,51.30
2017-09-10T12:32:55.827Z,52.00
2017-09-10T12:35:23.845Z,53.20
2017-09-10T12:37:51.362Z,52.40
2017-09-10T12:52:16.135Z,50.90
2017-09-10T12:54:44.139Z,51.30
2017-09-10T12:57:12.819Z,50.40
2017-09-10T12:59:40.436Z,51.20
2017-09-10T13:02:08.108Z,50.60
2017-09-10T13:04:36.257Z,50.40
2017-09-10T13:07:03.779Z,50.30
2017-09-10T13:09:31.311Z,50.10
2017-09-10T13:11:59.820Z,49.70
2017-09-10T13:14:27.335Z,49.60
2017-09-10T13:16:55.105Z,51.10
2017-09-10T13:19:22.625Z,50.80
2017-09-10T13:21:50.212Z,51.20
2017-09-10T13:24:19.015Z,53.20
2017-09-10T13:26:47.190Z,52.70
2017-09-10T13:29:14.720Z,52.70
2017-09-10T13:31:42.569Z,52.40
2017-09-10T13:34:10.138Z,53.10
2017-09-10T13:36:38.183Z,52.30
2017-09-10T13:39:05.915Z,51.40
2017-09-10T13:41:33.512Z,50.60
2017-09-10T13:44:01.108Z,50.00
2017-09-10T13:46:29.249Z,49.40
2017-09-10T13:48:56.760Z,50.20
2017-09-10T13:51:24.598Z,50.80
2017-09-10T13:53:52.107Z,50.80
2017-09-10T13:56:19.613Z,52.00
2017-09-10T13:58:49.113Z,51.70
2017-09-10T14:01:17.334Z,51.20
2017-09-10T14:03:44.846Z,51.30
2017-09-10T14:06:12.799Z,51.70
2017-09-10T14:08:40.319Z,52.20
2017-09-10T14:11:08.094Z,51.90
2017-09-10T14:13:35.979Z,53.60
2017-09-10T14:16:03.551Z,51.50
2017-09-10T14:18:31.514Z,49.00
2017-09-10T14:20:59.120Z,49.10
2017-09-10T14:23:27.011Z,49.30
2017-09-10T14:25:54.984Z,49.20
2017-09-10T14:28:22.481Z,49.60
2017-09-10T14:30:49.995Z,48.70
2017-09-10T14:33:18.398Z,48.60
2017-09-10T14:35:46.719Z,49.30
2017-09-10T14:38:14.626Z,49.40
2017-09-10T14:40:43.028Z,49.60
2017-09-10T14:43:10.610Z,49.60
2017-09-10T14:45:39.185Z,48.70
2017-09-10T14:48:07.418Z,48.70
2017-09-10T14:50:35.694Z,49.70
2017-09-10T14:53:03.898Z,49.20
2017-09-10T14:55:31.542Z,49.10
2017-09-10T14:58:00.129Z,49.50
2017-09-10T15:00:28.005Z,50.10
2017-09-10T15:02:56.403Z,50.60
2017-09-10T15:05:24.605Z,50.50
2017-09-10T15:07:53.566Z,51.30
2017-09-10T15:10:21.054Z,51.30
2017-09-10T15:12:48.998Z,51.20
2017-09-10T15:15:17.209Z,50.80
2017-09-10T15:17:46.191Z,50.70
2017-09-10T15:20:13.754Z,50.20
2017-09-10T15:22:41.737Z,50.30
2017-09-10T15:25:09.698Z,50.60
2017-09-10T15:27:37.927Z,52.10
2017-09-10T15:30:06.102Z,51.60
2017-09-10T15:32:34.787Z,52.90
2017-09-10T15:35:02.277Z,52.80
2017-09-10T15:37:30.112Z,53.00
2017-09-10T15:39:57.559Z,52.40
2017-09-10T15:42:25.334Z,52.40
2017-09-10T15:44:52.772Z,52.90
2017-09-10T15:47:21.022Z,52.30
2017-09-10T15:49:48.625Z,51.50
2017-09-10T15:52:16.097Z,51.70
2017-09-10T15:54:43.544Z,52.00
2017-09-10T15:57:11.690Z,51.70
2017-09-10T15:59:39.123Z,51.80
2017-09-10T16:02:07.617Z,51.80
2017-09-10T16:04:35.999Z,52.70
2017-09-10T16:07:05.138Z,53.30
2017-09-10T16:09:32.610Z,52.50
2017-09-10T16:12:00.093Z,52.80
2017-09-10T16:14:28.015Z,52.80
2017-09-10T16:16:56.092Z,53.00
2017-09-10T16:19:23.910Z,52.90
2017-09-10T16:21:53.150Z,52.80
2017-09-10T16:24:21.169Z,53.10
2017-09-10T16:26:49.919Z,52.90
2017-09-10T16:29:18.384Z,53.30
2017-09-10T16:31:46.610Z,53.60
2017-09-10T16:34:14.089Z,53.60
2017-09-10T16:36:41.593Z,53.20
2017-09-10T16:39:09.380Z,53.40
2017-09-10T16:41:36.827Z,53.60
2017-09-10T16:44:04.278Z,53.80
2017-09-10T16:46:33.892Z,53.70
2017-09-10T16:49:02.768Z,53.70
2017-09-10T16:51:30.272Z,53.80
2017-09-10T16:53:59.511Z,54.10
2017-09-10T16:56:27.185Z,53.50
2017-09-10T16:58:55.333Z,53.90
2017-09-10T17:01:24.386Z,54.20
2017-09-10T17:03:51.905Z,54.20
2017-09-10T17:06:20.706Z,54.00
2017-09-10T17:08:48.767Z,54.10
2017-09-10T17:11:16.818Z,54.40
2017-09-10T17:13:44.765Z,54.50
2017-09-10T17:16:12.824Z,54.30
2017-09-10T17:18:40.302Z,54.40
2017-09-10T17:21:08.321Z,54.60
2017-09-10T17:23:36.143Z,54.70
2017-09-10T17:26:04.047Z,54.10
2017-09-10T17:28:31.566Z,54.10
2017-09-10T17:30:59.164Z,53.90
2017-09-10T17:33:27.473Z,54.50
2017-09-10T17:35:55.499Z,54.40
2017-09-10T17:38:23.392Z,54.50
2017-09-10T17:40:51.367Z,54.90
2017-09-10T17:43:18.885Z,54.70
2017-09-10T17:45:47.196Z,54.90
2017-09-10T17:48:15.139Z,55.10
2017-09-10T17:50:43.434Z,55.10
2017-09-10T17:53:10.951Z,55.10
2017-09-10T17:55:39.266Z,55.40
2017-09-10T17:58:07.049Z,55.40
2017-09-10T18:00:36.026Z,55.40
2017-09-10T18:03:03.570Z,55.40
2017-09-10T18:05:32.384Z,55.50
2017-09-10T18:08:01.281Z,55.40
2017-09-10T18:10:29.065Z,55.30
2017-09-10T18:12:57.292Z,55.80
2017-09-10T18:15:25.175Z,55.80
2017-09-10T18:17:53.975Z,55.90
2017-09-10T18:20:21.483Z,55.90
2017-09-10T18:22:50.167Z,55.90
2017-09-10T18:25:18.057Z,55.90
2017-09-10T18:27:45.543Z,55.70
2017-09-10T18:30:13.322Z,55.70
2017-09-10T18:32:41.626Z,56.00
2017-09-10T18:35:09.512Z,56.00
2017-09-10T18:37:38.171Z,55.70
2017-09-10T18:40:05.696Z,55.70
2017-09-10T18:42:33.558Z,55.70
2017-09-10T18:45:01.070Z,55.80
2017-09-10T18:47:28.945Z,55.60
2017-09-10T18:49:56.462Z,55.60
2017-09-10T18:52:24.002Z,55.70
2017-09-10T18:54:51.546Z,55.60
2017-09-10T18:57:19.784Z,55.30
2017-09-10T18:59:47.320Z,55.30
2017-09-10T19:02:15.051Z,55.30
2017-09-10T19:04:43.871Z,54.90
2017-09-10T19:07:11.833Z,55.40
2017-09-10T19:09:40.284Z,55.20
2017-09-10T19:12:07.988Z,54.90
2017-09-10T19:14:36.386Z,55.20
2017-09-10T19:17:03.904Z,55.20
2017-09-10T19:19:31.775Z,55.20
2017-09-10T19:21:59.376Z,55.10
2017-09-10T19:24:27.514Z,55.60
2017-09-10T19:26:55.448Z,55.30
2017-09-10T19:29:22.980Z,55.20
2017-09-10T19:31:50.694Z,54.90
2017-09-10T19:34:18.206Z,54.50
2017-09-10T19:36:46.958Z,54.70
2017-09-10T19:39:14.468Z,55.70
2017-09-10T19:41:43.237Z,53.90
2017-09-10T19:44:10.756Z,54.30
2017-09-10T19:46:40.418Z,54.10
2017-09-10T19:49:08.287Z,54.10
2017-09-10T19:51:36.246Z,54.20
2017-09-10T19:54:03.761Z,54.20
2017-09-10T19:56:31.358Z,54.10
2017-09-10T19:58:59.314Z,54.20
2017-09-10T20:01:28.054Z,53.90
2017-09-10T20:03:57.819Z,54.10
2017-09-10T20:06:25.422Z,54.10
2017-09-10T20:08:54.017Z,53.80
2017-09-10T20:11:21.662Z,54.00
2017-09-10T20:13:49.264Z,54.10
2017-09-10T20:16:16.809Z,54.00
2017-09-10T20:18:45.045Z,53.90
2017-09-10T20:21:13.584Z,53.90
2017-09-10T20:23:41.543Z,53.80
2017-09-10T20:26:09.413Z,53.80
2017-09-10T20:28:36.974Z,53.70
2017-09-10T20:31:05.244Z,53.80
2017-09-10T20:33:33.401Z,53.70
2017-09-10T20:36:01.280Z,54.00
2017-09-10T20:38:28.785Z,54.00
2017-09-10T20:40:56.830Z,53.90
2017-09-10T20:43:24.789Z,53.90
2017-09-10T20:45:53.561Z,53.90
2017-09-10T20:48:22.321Z,53.60
2017-09-10T20:50:49.834Z,53.60
2017-09-10T20:53:17.410Z,53.40
2017-09-10T20:55:44.924Z,53.40
2017-09-10T20:58:12.794Z,53.30
2017-09-10T21:00:40.844Z,53.40
2017-09-10T21:03:08.424Z,53.40
2017-09-10T21:05:36.034Z,53.70
2017-09-10T21:08:03.712Z,53.40
2017-09-10T21:10:32.745Z,53.40
2017-09-10T21:13:00.358Z,53.20
2017-09-10T21:15:28.126Z,54.00
2017-09-10T21:17:55.642Z,53.30
2017-09-10T21:20:23.140Z,53.50
2017-09-10T21:22:51.100Z,53.60
2017-09-10T21:25:19.941Z,53.90
2017-09-10T21:27:47.506Z,53.80
2017-09-10T21:30:15.780Z,54.20
2017-09-10T21:32:43.740Z,54.20
2017-09-10T21:35:12.649Z,54.90
2017-09-10T21:37:40.201Z,54.30
2017-09-10T21:40:08.196Z,54.70
2017-09-10T21:42:36.250Z,54.90
2017-09-10T21:45:03.734Z,54.90
2017-09-10T21:47:31.910Z,54.90
2017-09-10T21:49:59.778Z,55.20
2017-09-10T21:52:27.657Z,55.10
2017-09-10T21:54:57.515Z,55.10
2017-09-10T21:57:25.638Z,55.00
2017-09-10T21:59:53.149Z,55.10
2017-09-10T22:02:21.784Z,55.20
2017-09-10T22:04:49.418Z,55.20
2017-09-10T22:07:17.087Z,55.10
2017-09-10T22:09:45.330Z,55.30
2017-09-10T22:12:12.854Z,55.10
2017-09-10T22:14:40.429Z,55.30
2017-09-10T22:17:08.305Z,55.40
2017-09-10T22:19:36.708Z,55.30
2017-09-10T22:22:04.214Z,55.30
2017-09-10T22:24:33.085Z,55.60
2017-09-10T22:27:02.120Z,55.50
2017-09-10T22:29:29.721Z,55.40
2017-09-10T22:32:27.676Z,55.40
2017-09-10T22:34:55.304Z,55.60
2017-09-10T22:37:24.032Z,55.60
2017-09-10T22:39:52.075Z,55.60
2017-09-10T22:42:19.580Z,55.60
2017-09-10T22:44:47.366Z,55.60
2017-09-10T22:47:15.532Z,55.80
2017-09-10T22:49:43.553Z,55.70
2017-09-10T22:52:11.517Z,55.90
2017-09-10T22:54:39.043Z,56.10
2017-09-10T22:57:07.251Z,55.90
2017-09-10T22:59:34.887Z,55.90
2017-09-10T23:02:03.174Z,56.10
2017-09-10T23:04:31.227Z,56.30
2017-09-10T23:06:58.727Z,56.20
2017-09-10T23:09:26.240Z,56.30
2017-09-10T23:11:53.752Z,56.60
2017-09-10T23:14:22.791Z,57.10
2017-09-10T23:16:50.790Z,57.00
2017-09-10T23:19:19.454Z,56.80
2017-09-10T23:21:46.965Z,56.90
2017-09-10T23:24:14.833Z,57.00
2017-09-10T23:26:43.186Z,57.20
2017-09-10T23:29:10.754Z,57.40
2017-09-10T23:31:38.988Z,57.10
2017-09-10T23:34:06.496Z,57.20
2017-09-10T23:36:34.006Z,57.40
2017-09-10T23:39:02.240Z,57.50
2017-09-10T23:41:31.100Z,57.80
2017-09-10T23:43:58.604Z,58.10
2017-09-10T23:46:29.026Z,58.80
2017-09-10T23:48:57.216Z,58.30
2017-09-10T23:51:25.313Z,58.50
2017-09-10T23:53:54.078Z,59.00
2017-09-10T23:56:21.587Z,58.90
2017-09-10T23:58:49.453Z,59.10
